sensor_id;sensor_type;location;lat;lon;timestamp;P1;durP1;ratioP1;P2;durP2;ratioP2
42912;SDS011;50720;54.324;18.558;2023-04-05T00:02:00;9.18;;;3.97;;
42912;SDS011;50720;54.324;18.558;2023-04-05T00:04:30;7.88;;;3.72;;
42912;SDS011;50720;54.324;18.558;2023-04-05T00:07:01;10.25;;;4.95;;
42912;SDS011;50720;54.324;18.558;2023-04-05T00:09:34;8.43;;;4.50;;
42912;SDS011;50720;54.324;18.558;2023-04-05T00:12:06;9.80;;;3.60;;
42912;SDS011;50720;54.324;18.558;2023-04-05T00:14:36;8.93;;;4.18;;
42912;SDS011;50720;54.324;18.558;2023-04-05T00:17:06;14.38;;;3.58;;
42912;SDS011;50720;54.324;18.558;2023-04-05T00:19:39;12.50;;;4.13;;
42912;SDS011;50720;54.324;18.558;2023-04-05T00:22:09;7.20;;;3.60;;
42912;SDS011;50720;54.324;18.558;2023-04-05T00:24:38;7.47;;;3.15;;
42912;SDS011;50720;54.324;18.558;2023-04-05T00:27:11;8.50;;;3.85;;
42912;SDS011;50720;54.324;18.558;2023-04-05T00:29:40;8.20;;;4.10;;
42912;SDS011;50720;54.324;18.558;2023-04-05T00:32:10;11.50;;;4.25;;
42912;SDS011;50720;54.324;18.558;2023-04-05T00:34:39;10.60;;;3.88;;
42912;SDS011;50720;54.324;18.558;2023-04-05T00:37:10;10.60;;;3.90;;
42912;SDS011;50720;54.324;18.558;2023-04-05T00:39:40;11.07;;;5.00;;
42912;SDS011;50720;54.324;18.558;2023-04-05T00:42:10;9.07;;;3.47;;
42912;SDS011;50720;54.324;18.558;2023-04-05T00:44:40;10.60;;;4.68;;
42912;SDS011;50720;54.324;18.558;2023-04-05T00:47:10;6.85;;;4.60;;
42912;SDS011;50720;54.324;18.558;2023-04-05T00:49:40;8.23;;;3.60;;
42912;SDS011;50720;54.324;18.558;2023-04-05T00:52:10;7.50;;;3.55;;
42912;SDS011;50720;54.324;18.558;2023-04-05T00:54:41;10.68;;;4.32;;
42912;SDS011;50720;54.324;18.558;2023-04-05T00:57:12;6.75;;;2.92;;
42912;SDS011;50720;54.324;18.558;2023-04-05T00:59:43;7.40;;;3.45;;
42912;SDS011;50720;54.324;18.558;2023-04-05T01:02:13;12.65;;;4.43;;
42912;SDS011;50720;54.324;18.558;2023-04-05T01:04:53;8.98;;;3.72;;
42912;SDS011;50720;54.324;18.558;2023-04-05T01:07:28;7.22;;;2.95;;
42912;SDS011;50720;54.324;18.558;2023-04-05T01:10:07;7.72;;;3.50;;
42912;SDS011;50720;54.324;18.558;2023-04-05T01:12:41;7.93;;;3.20;;
42912;SDS011;50720;54.324;18.558;2023-04-05T01:15:11;7.07;;;3.50;;
42912;SDS011;50720;54.324;18.558;2023-04-05T01:17:40;7.32;;;3.00;;
42912;SDS011;50720;54.324;18.558;2023-04-05T01:20:13;9.63;;;4.10;;
42912;SDS011;50720;54.324;18.558;2023-04-05T01:23:04;6.72;;;3.35;;
42912;SDS011;50720;54.324;18.558;2023-04-05T01:28:55;12.13;;;4.70;;
42912;SDS011;50720;54.324;18.558;2023-04-05T01:31:42;5.63;;;2.95;;
42912;SDS011;50720;54.324;18.558;2023-04-05T01:34:19;9.68;;;3.22;;
42912;SDS011;50720;54.324;18.558;2023-04-05T01:36:55;8.57;;;3.33;;
42912;SDS011;50720;54.324;18.558;2023-04-05T01:39:29;3.25;;;2.70;;
42912;SDS011;50720;54.324;18.558;2023-04-05T01:41:59;8.20;;;3.08;;
42912;SDS011;50720;54.324;18.558;2023-04-05T01:44:29;4.35;;;2.53;;
42912;SDS011;50720;54.324;18.558;2023-04-05T01:47:01;7.45;;;3.50;;
42912;SDS011;50720;54.324;18.558;2023-04-05T01:49:31;6.25;;;2.42;;
42912;SDS011;50720;54.324;18.558;2023-04-05T01:52:01;5.40;;;2.20;;
42912;SDS011;50720;54.324;18.558;2023-04-05T01:54:31;6.60;;;3.17;;
42912;SDS011;50720;54.324;18.558;2023-04-05T01:57:01;7.28;;;2.92;;
42912;SDS011;50720;54.324;18.558;2023-04-05T01:59:30;6.22;;;4.25;;
42912;SDS011;50720;54.324;18.558;2023-04-05T02:02:02;8.73;;;2.72;;
42912;SDS011;50720;54.324;18.558;2023-04-05T02:04:33;8.52;;;3.20;;
42912;SDS011;50720;54.324;18.558;2023-04-05T02:07:03;10.57;;;3.00;;
42912;SDS011;50720;54.324;18.558;2023-04-05T02:09:33;6.43;;;2.50;;
42912;SDS011;50720;54.324;18.558;2023-04-05T02:12:02;5.75;;;3.03;;
42912;SDS011;50720;54.324;18.558;2023-04-05T02:14:32;5.13;;;2.55;;
42912;SDS011;50720;54.324;18.558;2023-04-05T02:17:03;6.60;;;2.63;;
42912;SDS011;50720;54.324;18.558;2023-04-05T02:19:33;5.38;;;2.75;;
42912;SDS011;50720;54.324;18.558;2023-04-05T02:22:07;3.80;;;2.05;;
42912;SDS011;50720;54.324;18.558;2023-04-05T02:24:37;4.20;;;2.63;;
42912;SDS011;50720;54.324;18.558;2023-04-05T02:27:07;5.32;;;2.17;;
42912;SDS011;50720;54.324;18.558;2023-04-05T02:29:37;12.50;;;2.95;;
42912;SDS011;50720;54.324;18.558;2023-04-05T02:32:09;9.02;;;2.38;;
42912;SDS011;50720;54.324;18.558;2023-04-05T02:34:39;2.92;;;2.08;;
42912;SDS011;50720;54.324;18.558;2023-04-05T02:37:10;10.13;;;2.90;;
42912;SDS011;50720;54.324;18.558;2023-04-05T02:39:40;7.77;;;2.90;;
42912;SDS011;50720;54.324;18.558;2023-04-05T02:42:10;4.35;;;2.42;;
42912;SDS011;50720;54.324;18.558;2023-04-05T02:44:40;8.35;;;2.30;;
42912;SDS011;50720;54.324;18.558;2023-04-05T02:47:11;4.22;;;2.10;;
42912;SDS011;50720;54.324;18.558;2023-04-05T02:49:43;9.25;;;3.35;;
42912;SDS011;50720;54.324;18.558;2023-04-05T02:52:13;6.25;;;2.28;;
42912;SDS011;50720;54.324;18.558;2023-04-05T02:54:43;9.20;;;2.40;;
42912;SDS011;50720;54.324;18.558;2023-04-05T02:57:13;6.70;;;2.27;;
42912;SDS011;50720;54.324;18.558;2023-04-05T02:59:43;8.48;;;2.53;;
42912;SDS011;50720;54.324;18.558;2023-04-05T03:02:14;4.57;;;2.05;;
42912;SDS011;50720;54.324;18.558;2023-04-05T03:04:44;5.40;;;2.60;;
42912;SDS011;50720;54.324;18.558;2023-04-05T03:07:13;7.97;;;2.20;;
42912;SDS011;50720;54.324;18.558;2023-04-05T03:09:44;7.93;;;3.45;;
42912;SDS011;50720;54.324;18.558;2023-04-05T03:12:14;6.43;;;2.63;;
42912;SDS011;50720;54.324;18.558;2023-04-05T03:14:44;6.22;;;2.30;;
42912;SDS011;50720;54.324;18.558;2023-04-05T03:17:15;5.13;;;1.88;;
42912;SDS011;50720;54.324;18.558;2023-04-05T03:19:45;4.28;;;2.47;;
42912;SDS011;50720;54.324;18.558;2023-04-05T03:22:16;5.47;;;2.47;;
42912;SDS011;50720;54.324;18.558;2023-04-05T03:24:45;5.13;;;2.20;;
42912;SDS011;50720;54.324;18.558;2023-04-05T03:27:15;8.90;;;2.60;;
42912;SDS011;50720;54.324;18.558;2023-04-05T03:29:45;7.10;;;2.55;;
42912;SDS011;50720;54.324;18.558;2023-04-05T03:32:17;6.00;;;2.63;;
42912;SDS011;50720;54.324;18.558;2023-04-05T03:34:46;10.00;;;3.47;;
42912;SDS011;50720;54.324;18.558;2023-04-05T03:37:16;9.03;;;3.20;;
42912;SDS011;50720;54.324;18.558;2023-04-05T03:39:45;5.38;;;2.45;;
42912;SDS011;50720;54.324;18.558;2023-04-05T03:42:15;6.57;;;3.10;;
42912;SDS011;50720;54.324;18.558;2023-04-05T03:44:45;7.18;;;2.58;;
42912;SDS011;50720;54.324;18.558;2023-04-05T03:47:20;7.57;;;3.22;;
42912;SDS011;50720;54.324;18.558;2023-04-05T03:49:49;6.28;;;3.78;;
42912;SDS011;50720;54.324;18.558;2023-04-05T03:52:19;13.23;;;4.78;;
42912;SDS011;50720;54.324;18.558;2023-04-05T03:54:48;8.32;;;3.42;;
42912;SDS011;50720;54.324;18.558;2023-04-05T03:57:19;7.65;;;3.75;;
42912;SDS011;50720;54.324;18.558;2023-04-05T03:59:48;11.70;;;3.17;;
42912;SDS011;50720;54.324;18.558;2023-04-05T04:02:19;6.80;;;2.75;;
42912;SDS011;50720;54.324;18.558;2023-04-05T04:07:20;11.95;;;4.88;;
42912;SDS011;50720;54.324;18.558;2023-04-05T04:09:49;15.90;;;5.00;;
42912;SDS011;50720;54.324;18.558;2023-04-05T04:12:21;29.83;;;6.57;;
42912;SDS011;50720;54.324;18.558;2023-04-05T04:14:51;18.80;;;5.05;;
42912;SDS011;50720;54.324;18.558;2023-04-05T04:17:28;11.68;;;3.03;;
42912;SDS011;50720;54.324;18.558;2023-04-05T04:19:59;8.18;;;2.60;;
42912;SDS011;50720;54.324;18.558;2023-04-05T04:22:34;11.02;;;3.03;;
42912;SDS011;50720;54.324;18.558;2023-04-05T04:25:05;9.00;;;2.70;;
42912;SDS011;50720;54.324;18.558;2023-04-05T04:27:38;16.17;;;2.92;;
42912;SDS011;50720;54.324;18.558;2023-04-05T04:32:41;11.68;;;2.65;;
42912;SDS011;50720;54.324;18.558;2023-04-05T04:35:25;21.60;;;2.92;;
42912;SDS011;50720;54.324;18.558;2023-04-05T04:40:26;6.25;;;2.53;;
42912;SDS011;50720;54.324;18.558;2023-04-05T04:42:58;8.25;;;3.40;;
42912;SDS011;50720;54.324;18.558;2023-04-05T04:45:28;6.45;;;2.65;;
42912;SDS011;50720;54.324;18.558;2023-04-05T04:48:03;6.70;;;2.92;;
42912;SDS011;50720;54.324;18.558;2023-04-05T04:50:33;7.72;;;3.97;;
42912;SDS011;50720;54.324;18.558;2023-04-05T04:53:04;6.10;;;3.75;;
42912;SDS011;50720;54.324;18.558;2023-04-05T04:55:33;6.40;;;2.50;;
42912;SDS011;50720;54.324;18.558;2023-04-05T04:58:04;6.57;;;2.90;;
42912;SDS011;50720;54.324;18.558;2023-04-05T05:00:37;7.60;;;2.92;;
42912;SDS011;50720;54.324;18.558;2023-04-05T05:03:10;8.93;;;2.90;;
42912;SDS011;50720;54.324;18.558;2023-04-05T05:05:43;11.73;;;3.78;;
42912;SDS011;50720;54.324;18.558;2023-04-05T05:08:14;11.25;;;3.40;;
42912;SDS011;50720;54.324;18.558;2023-04-05T05:10:49;9.48;;;3.35;;
42912;SDS011;50720;54.324;18.558;2023-04-05T05:13:19;7.30;;;3.58;;
42912;SDS011;50720;54.324;18.558;2023-04-05T05:15:49;9.48;;;3.50;;
42912;SDS011;50720;54.324;18.558;2023-04-05T05:18:21;12.10;;;3.60;;
42912;SDS011;50720;54.324;18.558;2023-04-05T05:20:50;10.93;;;4.10;;
42912;SDS011;50720;54.324;18.558;2023-04-05T05:23:20;13.57;;;3.92;;
42912;SDS011;50720;54.324;18.558;2023-04-05T05:25:49;13.60;;;3.40;;
42912;SDS011;50720;54.324;18.558;2023-04-05T05:28:25;15.35;;;3.90;;
42912;SDS011;50720;54.324;18.558;2023-04-05T05:30:54;7.30;;;3.78;;
42912;SDS011;50720;54.324;18.558;2023-04-05T05:33:26;11.02;;;4.28;;
42912;SDS011;50720;54.324;18.558;2023-04-05T05:35:55;12.50;;;3.55;;
42912;SDS011;50720;54.324;18.558;2023-04-05T05:38:25;9.73;;;2.58;;
42912;SDS011;50720;54.324;18.558;2023-04-05T05:40:55;24.20;;;4.63;;
42912;SDS011;50720;54.324;18.558;2023-04-05T05:43:25;9.23;;;3.77;;
42912;SDS011;50720;54.324;18.558;2023-04-05T05:45:54;10.63;;;3.30;;
42912;SDS011;50720;54.324;18.558;2023-04-05T05:48:29;7.50;;;3.15;;
42912;SDS011;50720;54.324;18.558;2023-04-05T05:50:59;12.88;;;4.18;;
42912;SDS011;50720;54.324;18.558;2023-04-05T05:53:29;12.07;;;3.92;;
42912;SDS011;50720;54.324;18.558;2023-04-05T05:55:58;9.25;;;3.60;;
42912;SDS011;50720;54.324;18.558;2023-04-05T05:58:28;11.88;;;4.30;;
42912;SDS011;50720;54.324;18.558;2023-04-05T06:00:57;17.00;;;4.07;;
42912;SDS011;50720;54.324;18.558;2023-04-05T06:03:38;11.20;;;4.75;;
42912;SDS011;50720;54.324;18.558;2023-04-05T06:06:08;11.45;;;4.38;;
42912;SDS011;50720;54.324;18.558;2023-04-05T06:08:38;12.68;;;4.90;;
42912;SDS011;50720;54.324;18.558;2023-04-05T06:11:15;13.00;;;4.30;;
42912;SDS011;50720;54.324;18.558;2023-04-05T06:13:46;20.65;;;5.32;;
42912;SDS011;50720;54.324;18.558;2023-04-05T06:16:15;31.65;;;5.90;;
42912;SDS011;50720;54.324;18.558;2023-04-05T06:18:47;27.95;;;4.57;;
42912;SDS011;50720;54.324;18.558;2023-04-05T06:21:17;10.63;;;4.50;;
42912;SDS011;50720;54.324;18.558;2023-04-05T06:23:47;22.73;;;6.27;;
42912;SDS011;50720;54.324;18.558;2023-04-05T06:26:16;11.52;;;3.80;;
42912;SDS011;50720;54.324;18.558;2023-04-05T06:28:47;11.20;;;3.30;;
42912;SDS011;50720;54.324;18.558;2023-04-05T06:31:18;11.45;;;4.38;;
42912;SDS011;50720;54.324;18.558;2023-04-05T06:33:50;11.57;;;3.95;;
42912;SDS011;50720;54.324;18.558;2023-04-05T06:36:20;7.45;;;3.17;;
42912;SDS011;50720;54.324;18.558;2023-04-05T06:38:53;12.75;;;3.33;;
42912;SDS011;50720;54.324;18.558;2023-04-05T06:41:23;5.20;;;2.53;;
42912;SDS011;50720;54.324;18.558;2023-04-05T06:43:54;7.53;;;3.05;;
42912;SDS011;50720;54.324;18.558;2023-04-05T06:46:23;9.05;;;2.03;;
42912;SDS011;50720;54.324;18.558;2023-04-05T06:48:55;6.97;;;3.03;;
42912;SDS011;50720;54.324;18.558;2023-04-05T06:51:29;4.57;;;2.30;;
42912;SDS011;50720;54.324;18.558;2023-04-05T06:54:00;4.68;;;2.90;;
42912;SDS011;50720;54.324;18.558;2023-04-05T06:56:29;7.95;;;3.13;;
42912;SDS011;50720;54.324;18.558;2023-04-05T06:58:59;7.10;;;2.83;;
42912;SDS011;50720;54.324;18.558;2023-04-05T07:01:29;5.45;;;2.70;;
42912;SDS011;50720;54.324;18.558;2023-04-05T07:04:01;13.15;;;3.47;;
42912;SDS011;50720;54.324;18.558;2023-04-05T07:06:30;12.45;;;1.88;;
42912;SDS011;50720;54.324;18.558;2023-04-05T07:09:01;8.38;;;2.72;;
42912;SDS011;50720;54.324;18.558;2023-04-05T07:11:31;4.82;;;1.73;;
42912;SDS011;50720;54.324;18.558;2023-04-05T07:14:01;5.80;;;1.73;;
42912;SDS011;50720;54.324;18.558;2023-04-05T07:16:31;5.60;;;2.00;;
42912;SDS011;50720;54.324;18.558;2023-04-05T07:19:02;7.22;;;1.90;;
42912;SDS011;50720;54.324;18.558;2023-04-05T07:21:33;5.53;;;2.17;;
42912;SDS011;50720;54.324;18.558;2023-04-05T07:24:03;7.10;;;2.15;;
42912;SDS011;50720;54.324;18.558;2023-04-05T07:26:33;4.85;;;2.35;;
42912;SDS011;50720;54.324;18.558;2023-04-05T07:29:03;4.63;;;1.85;;
42912;SDS011;50720;54.324;18.558;2023-04-05T07:31:33;6.97;;;2.30;;
42912;SDS011;50720;54.324;18.558;2023-04-05T07:34:05;10.50;;;1.95;;
42912;SDS011;50720;54.324;18.558;2023-04-05T07:36:34;4.57;;;1.60;;
42912;SDS011;50720;54.324;18.558;2023-04-05T07:41:35;6.68;;;2.03;;
42912;SDS011;50720;54.324;18.558;2023-04-05T07:44:06;9.52;;;2.05;;
42912;SDS011;50720;54.324;18.558;2023-04-05T07:46:36;3.75;;;1.67;;
42912;SDS011;50720;54.324;18.558;2023-04-05T07:49:16;3.88;;;1.70;;
42912;SDS011;50720;54.324;18.558;2023-04-05T07:51:45;8.45;;;1.85;;
42912;SDS011;50720;54.324;18.558;2023-04-05T07:54:15;5.78;;;1.60;;
42912;SDS011;50720;54.324;18.558;2023-04-05T07:56:47;3.97;;;1.75;;
42912;SDS011;50720;54.324;18.558;2023-04-05T07:59:18;4.43;;;1.60;;
42912;SDS011;50720;54.324;18.558;2023-04-05T08:01:48;5.82;;;1.75;;
42912;SDS011;50720;54.324;18.558;2023-04-05T08:04:20;5.75;;;1.55;;
42912;SDS011;50720;54.324;18.558;2023-04-05T08:06:52;8.25;;;1.08;;
42912;SDS011;50720;54.324;18.558;2023-04-05T08:09:22;3.50;;;1.27;;
42912;SDS011;50720;54.324;18.558;2023-04-05T08:11:51;2.83;;;1.65;;
42912;SDS011;50720;54.324;18.558;2023-04-05T08:14:21;3.10;;;1.73;;
42912;SDS011;50720;54.324;18.558;2023-04-05T08:16:50;3.92;;;1.73;;
42912;SDS011;50720;54.324;18.558;2023-04-05T08:19:22;5.80;;;2.25;;
42912;SDS011;50720;54.324;18.558;2023-04-05T08:24:21;6.50;;;2.05;;
42912;SDS011;50720;54.324;18.558;2023-04-05T08:26:51;11.55;;;2.25;;
42912;SDS011;50720;54.324;18.558;2023-04-05T08:29:21;4.25;;;1.60;;
42912;SDS011;50720;54.324;18.558;2023-04-05T08:31:50;5.53;;;1.70;;
42912;SDS011;50720;54.324;18.558;2023-04-05T08:34:22;4.30;;;1.77;;
42912;SDS011;50720;54.324;18.558;2023-04-05T08:36:51;4.35;;;1.80;;
42912;SDS011;50720;54.324;18.558;2023-04-05T08:39:21;4.90;;;1.85;;
42912;SDS011;50720;54.324;18.558;2023-04-05T08:41:53;3.90;;;1.83;;
42912;SDS011;50720;54.324;18.558;2023-04-05T08:44:30;8.70;;;1.75;;
42912;SDS011;50720;54.324;18.558;2023-04-05T08:46:59;5.22;;;1.52;;
42912;SDS011;50720;54.324;18.558;2023-04-05T08:49:30;15.70;;;3.15;;
42912;SDS011;50720;54.324;18.558;2023-04-05T08:52:00;5.18;;;2.00;;
42912;SDS011;50720;54.324;18.558;2023-04-05T08:54:31;6.90;;;1.95;;
42912;SDS011;50720;54.324;18.558;2023-04-05T08:57:01;2.85;;;1.60;;
42912;SDS011;50720;54.324;18.558;2023-04-05T08:59:34;3.75;;;1.88;;
42912;SDS011;50720;54.324;18.558;2023-04-05T09:02:08;10.88;;;2.08;;
42912;SDS011;50720;54.324;18.558;2023-04-05T09:04:45;6.20;;;1.45;;
42912;SDS011;50720;54.324;18.558;2023-04-05T09:07:15;7.07;;;1.95;;
42912;SDS011;50720;54.324;18.558;2023-04-05T09:09:48;6.07;;;1.98;;
42912;SDS011;50720;54.324;18.558;2023-04-05T09:12:21;9.85;;;2.15;;
42912;SDS011;50720;54.324;18.558;2023-04-05T09:14:53;5.78;;;1.90;;
42912;SDS011;50720;54.324;18.558;2023-04-05T09:17:23;5.35;;;1.17;;
42912;SDS011;50720;54.324;18.558;2023-04-05T09:19:55;3.72;;;1.90;;
42912;SDS011;50720;54.324;18.558;2023-04-05T09:22:24;4.20;;;1.52;;
42912;SDS011;50720;54.324;18.558;2023-04-05T09:24:55;5.43;;;2.15;;
42912;SDS011;50720;54.324;18.558;2023-04-05T09:27:24;5.10;;;2.03;;
42912;SDS011;50720;54.324;18.558;2023-04-05T09:29:55;9.38;;;2.53;;
42912;SDS011;50720;54.324;18.558;2023-04-05T09:32:24;3.63;;;2.10;;
42912;SDS011;50720;54.324;18.558;2023-04-05T09:34:57;4.68;;;1.50;;
42912;SDS011;50720;54.324;18.558;2023-04-05T09:37:31;5.03;;;1.80;;
42912;SDS011;50720;54.324;18.558;2023-04-05T09:40:12;4.68;;;1.83;;
42912;SDS011;50720;54.324;18.558;2023-04-05T09:42:42;8.63;;;2.00;;
42912;SDS011;50720;54.324;18.558;2023-04-05T09:45:13;7.00;;;1.77;;
42912;SDS011;50720;54.324;18.558;2023-04-05T09:47:52;1.88;;;1.38;;
42912;SDS011;50720;54.324;18.558;2023-04-05T09:50:25;4.40;;;1.38;;
42912;SDS011;50720;54.324;18.558;2023-04-05T09:53:04;3.15;;;0.95;;
42912;SDS011;50720;54.324;18.558;2023-04-05T09:55:35;4.28;;;1.30;;
42912;SDS011;50720;54.324;18.558;2023-04-05T09:58:10;4.82;;;1.25;;
42912;SDS011;50720;54.324;18.558;2023-04-05T10:00:47;4.50;;;1.10;;
42912;SDS011;50720;54.324;18.558;2023-04-05T10:03:29;4.90;;;2.10;;
42912;SDS011;50720;54.324;18.558;2023-04-05T10:06:00;6.57;;;1.70;;
42912;SDS011;50720;54.324;18.558;2023-04-05T10:08:29;6.78;;;1.88;;
42912;SDS011;50720;54.324;18.558;2023-04-05T10:11:00;13.70;;;3.95;;
42912;SDS011;50720;54.324;18.558;2023-04-05T10:13:31;7.20;;;2.70;;
42912;SDS011;50720;54.324;18.558;2023-04-05T10:16:03;7.93;;;1.88;;
42912;SDS011;50720;54.324;18.558;2023-04-05T10:18:38;6.95;;;1.70;;
42912;SDS011;50720;54.324;18.558;2023-04-05T10:21:16;3.03;;;1.50;;
42912;SDS011;50720;54.324;18.558;2023-04-05T10:23:55;3.67;;;1.88;;
42912;SDS011;50720;54.324;18.558;2023-04-05T10:26:31;7.13;;;2.20;;
42912;SDS011;50720;54.324;18.558;2023-04-05T10:29:08;6.55;;;1.58;;
42912;SDS011;50720;54.324;18.558;2023-04-05T10:31:45;9.05;;;2.33;;
42912;SDS011;50720;54.324;18.558;2023-04-05T10:34:22;5.85;;;1.85;;
42912;SDS011;50720;54.324;18.558;2023-04-05T10:37:01;4.63;;;2.73;;
42912;SDS011;50720;54.324;18.558;2023-04-05T10:42:04;5.43;;;1.60;;
42912;SDS011;50720;54.324;18.558;2023-04-05T10:44:39;12.07;;;2.20;;
42912;SDS011;50720;54.324;18.558;2023-04-05T10:47:12;5.03;;;1.45;;
42912;SDS011;50720;54.324;18.558;2023-04-05T10:49:45;5.53;;;1.65;;
42912;SDS011;50720;54.324;18.558;2023-04-05T10:52:19;4.25;;;1.80;;
42912;SDS011;50720;54.324;18.558;2023-04-05T10:54:49;3.63;;;1.48;;
42912;SDS011;50720;54.324;18.558;2023-04-05T10:57:23;3.55;;;1.95;;
42912;SDS011;50720;54.324;18.558;2023-04-05T10:59:53;3.55;;;1.55;;
42912;SDS011;50720;54.324;18.558;2023-04-05T11:02:23;2.70;;;1.20;;
42912;SDS011;50720;54.324;18.558;2023-04-05T11:04:53;6.13;;;1.60;;
42912;SDS011;50720;54.324;18.558;2023-04-05T11:10:12;3.55;;;1.40;;
42912;SDS011;50720;54.324;18.558;2023-04-05T11:15:38;3.00;;;1.80;;
42912;SDS011;50720;54.324;18.558;2023-04-05T11:18:10;5.55;;;1.88;;
42912;SDS011;50720;54.324;18.558;2023-04-05T11:20:48;6.18;;;2.40;;
42912;SDS011;50720;54.324;18.558;2023-04-05T11:23:21;8.80;;;2.80;;
42912;SDS011;50720;54.324;18.558;2023-04-05T11:25:52;9.55;;;2.65;;
42912;SDS011;50720;54.324;18.558;2023-04-05T11:28:25;7.07;;;3.00;;
42912;SDS011;50720;54.324;18.558;2023-04-05T11:31:11;7.32;;;2.67;;
42912;SDS011;50720;54.324;18.558;2023-04-05T11:33:52;9.35;;;3.33;;
42912;SDS011;50720;54.324;18.558;2023-04-05T11:36:29;11.10;;;3.30;;
42912;SDS011;50720;54.324;18.558;2023-04-05T11:42:00;11.10;;;2.92;;
42912;SDS011;50720;54.324;18.558;2023-04-05T11:44:39;8.48;;;2.90;;
42912;SDS011;50720;54.324;18.558;2023-04-05T11:47:09;6.75;;;2.78;;
42912;SDS011;50720;54.324;18.558;2023-04-05T11:49:40;7.72;;;2.55;;
42912;SDS011;50720;54.324;18.558;2023-04-05T11:52:13;9.98;;;2.72;;
42912;SDS011;50720;54.324;18.558;2023-04-05T11:54:46;7.90;;;2.83;;
42912;SDS011;50720;54.324;18.558;2023-04-05T11:57:18;5.45;;;3.50;;
42912;SDS011;50720;54.324;18.558;2023-04-05T11:59:49;7.10;;;3.25;;
42912;SDS011;50720;54.324;18.558;2023-04-05T12:02:20;7.90;;;2.50;;
42912;SDS011;50720;54.324;18.558;2023-04-05T12:04:53;6.10;;;2.55;;
42912;SDS011;50720;54.324;18.558;2023-04-05T12:07:24;6.55;;;2.83;;
42912;SDS011;50720;54.324;18.558;2023-04-05T12:10:01;6.05;;;2.58;;
42912;SDS011;50720;54.324;18.558;2023-04-05T12:12:36;6.03;;;2.63;;
42912;SDS011;50720;54.324;18.558;2023-04-05T12:15:10;8.50;;;2.15;;
42912;SDS011;50720;54.324;18.558;2023-04-05T12:17:42;8.18;;;2.83;;
42912;SDS011;50720;54.324;18.558;2023-04-05T12:20:14;8.20;;;2.65;;
42912;SDS011;50720;54.324;18.558;2023-04-05T12:22:45;7.95;;;2.60;;
42912;SDS011;50720;54.324;18.558;2023-04-05T12:25:18;15.05;;;4.50;;
42912;SDS011;50720;54.324;18.558;2023-04-05T12:27:48;5.10;;;2.20;;
42912;SDS011;50720;54.324;18.558;2023-04-05T12:30:18;8.20;;;2.30;;
42912;SDS011;50720;54.324;18.558;2023-04-05T12:32:49;5.15;;;2.58;;
42912;SDS011;50720;54.324;18.558;2023-04-05T12:35:20;5.32;;;2.33;;
42912;SDS011;50720;54.324;18.558;2023-04-05T12:37:53;9.85;;;2.80;;
42912;SDS011;50720;54.324;18.558;2023-04-05T12:40:27;3.75;;;2.03;;
42912;SDS011;50720;54.324;18.558;2023-04-05T12:43:02;10.35;;;2.28;;
42912;SDS011;50720;54.324;18.558;2023-04-05T12:45:33;5.80;;;2.08;;
42912;SDS011;50720;54.324;18.558;2023-04-05T12:48:08;7.85;;;2.35;;
42912;SDS011;50720;54.324;18.558;2023-04-05T12:50:43;6.00;;;2.25;;
42912;SDS011;50720;54.324;18.558;2023-04-05T12:53:14;5.43;;;1.70;;
42912;SDS011;50720;54.324;18.558;2023-04-05T12:55:49;8.10;;;3.22;;
42912;SDS011;50720;54.324;18.558;2023-04-05T12:58:20;10.98;;;2.42;;
42912;SDS011;50720;54.324;18.558;2023-04-05T13:00:51;4.35;;;2.75;;
42912;SDS011;50720;54.324;18.558;2023-04-05T13:03:20;5.82;;;2.13;;
42912;SDS011;50720;54.324;18.558;2023-04-05T13:05:51;6.35;;;2.03;;
42912;SDS011;50720;54.324;18.558;2023-04-05T13:08:20;5.38;;;1.95;;
42912;SDS011;50720;54.324;18.558;2023-04-05T13:10:52;8.15;;;2.15;;
42912;SDS011;50720;54.324;18.558;2023-04-05T13:13:24;8.65;;;2.53;;
42912;SDS011;50720;54.324;18.558;2023-04-05T13:15:53;6.05;;;2.83;;
42912;SDS011;50720;54.324;18.558;2023-04-05T13:18:23;7.38;;;2.70;;
42912;SDS011;50720;54.324;18.558;2023-04-05T13:20:53;11.63;;;2.67;;
42912;SDS011;50720;54.324;18.558;2023-04-05T13:23:22;7.88;;;2.72;;
42912;SDS011;50720;54.324;18.558;2023-04-05T13:25:54;9.82;;;4.80;;
42912;SDS011;50720;54.324;18.558;2023-04-05T13:28:23;10.98;;;2.75;;
42912;SDS011;50720;54.324;18.558;2023-04-05T13:30:53;10.07;;;3.65;;
42912;SDS011;50720;54.324;18.558;2023-04-05T13:33:23;9.00;;;2.75;;
42912;SDS011;50720;54.324;18.558;2023-04-05T13:35:53;11.63;;;3.00;;
42912;SDS011;50720;54.324;18.558;2023-04-05T13:38:22;7.43;;;3.20;;
42912;SDS011;50720;54.324;18.558;2023-04-05T13:40:54;9.48;;;3.38;;
42912;SDS011;50720;54.324;18.558;2023-04-05T13:43:23;11.98;;;3.60;;
42912;SDS011;50720;54.324;18.558;2023-04-05T13:45:54;8.65;;;3.50;;
42912;SDS011;50720;54.324;18.558;2023-04-05T13:48:24;10.88;;;3.22;;
42912;SDS011;50720;54.324;18.558;2023-04-05T13:50:53;11.40;;;2.80;;
42912;SDS011;50720;54.324;18.558;2023-04-05T13:53:23;9.57;;;2.25;;
42912;SDS011;50720;54.324;18.558;2023-04-05T13:55:56;10.70;;;2.20;;
42912;SDS011;50720;54.324;18.558;2023-04-05T13:58:25;10.07;;;2.50;;
42912;SDS011;50720;54.324;18.558;2023-04-05T14:00:55;9.95;;;2.88;;
42912;SDS011;50720;54.324;18.558;2023-04-05T14:03:25;9.93;;;2.75;;
42912;SDS011;50720;54.324;18.558;2023-04-05T14:05:55;7.70;;;2.73;;
42912;SDS011;50720;54.324;18.558;2023-04-05T14:08:24;7.63;;;2.45;;
42912;SDS011;50720;54.324;18.558;2023-04-05T14:10:56;6.15;;;2.30;;
42912;SDS011;50720;54.324;18.558;2023-04-05T14:15:55;7.10;;;2.60;;
42912;SDS011;50720;54.324;18.558;2023-04-05T14:18:24;13.55;;;4.50;;
42912;SDS011;50720;54.324;18.558;2023-04-05T14:20:54;10.20;;;2.93;;
42912;SDS011;50720;54.324;18.558;2023-04-05T14:23:24;7.60;;;3.30;;
42912;SDS011;50720;54.324;18.558;2023-04-05T14:25:56;13.93;;;4.93;;
42912;SDS011;50720;54.324;18.558;2023-04-05T14:28:25;14.18;;;3.13;;
42912;SDS011;50720;54.324;18.558;2023-04-05T14:30:55;9.60;;;3.30;;
42912;SDS011;50720;54.324;18.558;2023-04-05T14:33:25;13.60;;;3.75;;
42912;SDS011;50720;54.324;18.558;2023-04-05T14:35:56;14.20;;;4.50;;
42912;SDS011;50720;54.324;18.558;2023-04-05T14:38:25;12.98;;;4.35;;
42912;SDS011;50720;54.324;18.558;2023-04-05T14:40:57;13.60;;;3.28;;
42912;SDS011;50720;54.324;18.558;2023-04-05T14:43:27;14.52;;;4.40;;
42912;SDS011;50720;54.324;18.558;2023-04-05T14:45:57;12.07;;;3.60;;
42912;SDS011;50720;54.324;18.558;2023-04-05T14:48:26;15.90;;;4.03;;
42912;SDS011;50720;54.324;18.558;2023-04-05T14:50:58;13.40;;;3.50;;
42912;SDS011;50720;54.324;18.558;2023-04-05T14:53:27;7.97;;;3.70;;
42912;SDS011;50720;54.324;18.558;2023-04-05T14:55:59;11.43;;;3.15;;
42912;SDS011;50720;54.324;18.558;2023-04-05T15:00:59;8.10;;;3.20;;
42912;SDS011;50720;54.324;18.558;2023-04-05T15:03:43;8.57;;;3.35;;
42912;SDS011;50720;54.324;18.558;2023-04-05T15:06:14;11.77;;;3.55;;
42912;SDS011;50720;54.324;18.558;2023-04-05T15:08:44;14.63;;;3.50;;
42912;SDS011;50720;54.324;18.558;2023-04-05T15:11:15;7.63;;;3.28;;
42912;SDS011;50720;54.324;18.558;2023-04-05T15:13:44;10.77;;;4.07;;
42912;SDS011;50720;54.324;18.558;2023-04-05T15:16:14;14.90;;;3.75;;
42912;SDS011;50720;54.324;18.558;2023-04-05T15:18:44;13.05;;;4.00;;
42912;SDS011;50720;54.324;18.558;2023-04-05T15:21:14;10.13;;;3.67;;
42912;SDS011;50720;54.324;18.558;2023-04-05T15:23:44;17.15;;;4.22;;
42912;SDS011;50720;54.324;18.558;2023-04-05T15:26:15;11.73;;;3.92;;
42912;SDS011;50720;54.324;18.558;2023-04-05T15:28:44;10.27;;;3.45;;